sensor_id;sensor_type;location;lat;lon;timestamp;P1;durP1;ratioP1;P2;durP2;ratioP2
15944;SDS011;30172;48.832;8.732;2023-07-20T00:00:22;3.92;;;2.90;;
15944;SDS011;30172;48.832;8.732;2023-07-20T00:02:49;4.53;;;2.30;;
15944;SDS011;30172;48.832;8.732;2023-07-20T00:05:15;2.08;;;1.83;;
15944;SDS011;30172;48.832;8.732;2023-07-20T00:07:43;4.68;;;2.28;;
15944;SDS011;30172;48.832;8.732;2023-07-20T00:10:09;4.70;;;2.47;;
15944;SDS011;30172;48.832;8.732;2023-07-20T00:12:34;4.43;;;2.47;;
15944;SDS011;30172;48.832;8.732;2023-07-20T00:14:59;7.07;;;2.80;;
15944;SDS011;30172;48.832;8.732;2023-07-20T00:17:25;4.13;;;2.35;;
15944;SDS011;30172;48.832;8.732;2023-07-20T00:19:50;2.60;;;2.20;;
15944;SDS011;30172;48.832;8.732;2023-07-20T00:22:15;3.10;;;2.65;;
15944;SDS011;30172;48.832;8.732;2023-07-20T00:24:41;5.90;;;2.72;;
15944;SDS011;30172;48.832;8.732;2023-07-20T00:27:06;3.28;;;2.45;;
15944;SDS011;30172;48.832;8.732;2023-07-20T00:29:31;4.90;;;2.67;;
15944;SDS011;30172;48.832;8.732;2023-07-20T00:31:57;6.00;;;2.45;;
15944;SDS011;30172;48.832;8.732;2023-07-20T00:34:23;3.97;;;2.65;;
15944;SDS011;30172;48.832;8.732;2023-07-20T00:36:48;4.38;;;2.78;;
15944;SDS011;30172;48.832;8.732;2023-07-20T00:39:14;2.75;;;2.35;;
15944;SDS011;30172;48.832;8.732;2023-07-20T00:41:39;5.80;;;2.75;;
15944;SDS011;30172;48.832;8.732;2023-07-20T00:44:05;4.75;;;2.50;;
15944;SDS011;30172;48.832;8.732;2023-07-20T00:46:30;4.10;;;2.42;;
15944;SDS011;30172;48.832;8.732;2023-07-20T00:48:57;5.35;;;2.25;;
15944;SDS011;30172;48.832;8.732;2023-07-20T00:51:23;2.95;;;2.50;;
15944;SDS011;30172;48.832;8.732;2023-07-20T00:53:48;4.10;;;2.40;;
15944;SDS011;30172;48.832;8.732;2023-07-20T00:56:14;4.13;;;2.15;;
15944;SDS011;30172;48.832;8.732;2023-07-20T00:58:40;7.82;;;2.78;;
15944;SDS011;30172;48.832;8.732;2023-07-20T01:01:05;3.58;;;2.53;;
15944;SDS011;30172;48.832;8.732;2023-07-20T01:03:31;3.95;;;2.58;;
15944;SDS011;30172;48.832;8.732;2023-07-20T01:06:04;3.40;;;2.40;;
15944;SDS011;30172;48.832;8.732;2023-07-20T01:08:40;3.78;;;2.80;;
15944;SDS011;30172;48.832;8.732;2023-07-20T01:11:19;4.40;;;2.40;;
15944;SDS011;30172;48.832;8.732;2023-07-20T01:13:46;4.28;;;2.42;;
15944;SDS011;30172;48.832;8.732;2023-07-20T01:16:12;3.28;;;2.63;;
15944;SDS011;30172;48.832;8.732;2023-07-20T01:18:37;2.80;;;2.30;;
15944;SDS011;30172;48.832;8.732;2023-07-20T01:21:03;3.05;;;2.20;;
15944;SDS011;30172;48.832;8.732;2023-07-20T01:32:56;5.78;;;2.45;;
15944;SDS011;30172;48.832;8.732;2023-07-20T01:35:23;6.90;;;2.20;;
15944;SDS011;30172;48.832;8.732;2023-07-20T01:37:51;2.47;;;2.20;;
15944;SDS011;30172;48.832;8.732;2023-07-20T01:40:17;4.57;;;2.38;;
15944;SDS011;30172;48.832;8.732;2023-07-20T01:42:45;4.18;;;2.20;;
15944;SDS011;30172;48.832;8.732;2023-07-20T01:45:11;5.20;;;2.30;;
15944;SDS011;30172;48.832;8.732;2023-07-20T01:47:36;3.47;;;2.38;;
15944;SDS011;30172;48.832;8.732;2023-07-20T01:50:02;4.47;;;2.40;;
15944;SDS011;30172;48.832;8.732;2023-07-20T01:52:27;4.15;;;2.33;;
15944;SDS011;30172;48.832;8.732;2023-07-20T01:54:52;4.90;;;2.30;;
15944;SDS011;30172;48.832;8.732;2023-07-20T01:57:18;2.47;;;2.08;;
15944;SDS011;30172;48.832;8.732;2023-07-20T01:59:43;4.57;;;2.10;;
15944;SDS011;30172;48.832;8.732;2023-07-20T02:02:08;5.78;;;2.33;;
15944;SDS011;30172;48.832;8.732;2023-07-20T02:04:33;5.68;;;2.50;;
15944;SDS011;30172;48.832;8.732;2023-07-20T02:06:59;3.50;;;2.20;;
15944;SDS011;30172;48.832;8.732;2023-07-20T02:09:25;3.72;;;2.47;;
15944;SDS011;30172;48.832;8.732;2023-07-20T02:11:50;5.63;;;2.20;;
15944;SDS011;30172;48.832;8.732;2023-07-20T02:14:15;6.22;;;2.25;;
15944;SDS011;30172;48.832;8.732;2023-07-20T02:16:41;3.15;;;2.08;;
15944;SDS011;30172;48.832;8.732;2023-07-20T02:19:06;2.55;;;2.22;;
15944;SDS011;30172;48.832;8.732;2023-07-20T02:21:32;3.20;;;2.30;;
15944;SDS011;30172;48.832;8.732;2023-07-20T02:23:57;3.78;;;2.28;;
15944;SDS011;30172;48.832;8.732;2023-07-20T02:26:22;5.20;;;2.42;;
15944;SDS011;30172;48.832;8.732;2023-07-20T02:28:48;5.85;;;2.08;;
15944;SDS011;30172;48.832;8.732;2023-07-20T02:31:13;3.72;;;3.05;;
15944;SDS011;30172;48.832;8.732;2023-07-20T02:33:39;3.63;;;2.33;;
15944;SDS011;30172;48.832;8.732;2023-07-20T02:36:04;3.45;;;2.22;;
15944;SDS011;30172;48.832;8.732;2023-07-20T02:38:29;3.63;;;2.28;;
15944;SDS011;30172;48.832;8.732;2023-07-20T02:40:55;4.22;;;2.03;;
15944;SDS011;30172;48.832;8.732;2023-07-20T02:43:20;3.20;;;2.20;;
15944;SDS011;30172;48.832;8.732;2023-07-20T02:45:45;5.03;;;1.98;;
15944;SDS011;30172;48.832;8.732;2023-07-20T02:48:11;4.00;;;2.72;;
15944;SDS011;30172;48.832;8.732;2023-07-20T02:50:36;4.40;;;2.22;;
15944;SDS011;30172;48.832;8.732;2023-07-20T02:53:01;3.10;;;2.38;;
15944;SDS011;30172;48.832;8.732;2023-07-20T02:55:27;3.92;;;2.47;;
15944;SDS011;30172;48.832;8.732;2023-07-20T02:57:52;5.30;;;2.60;;
15944;SDS011;30172;48.832;8.732;2023-07-20T03:00:18;3.72;;;2.70;;
15944;SDS011;30172;48.832;8.732;2023-07-20T03:02:44;8.30;;;2.30;;
15944;SDS011;30172;48.832;8.732;2023-07-20T03:05:14;3.33;;;2.40;;
15944;SDS011;30172;48.832;8.732;2023-07-20T03:07:39;2.67;;;2.38;;
15944;SDS011;30172;48.832;8.732;2023-07-20T03:10:05;3.70;;;1.73;;
15944;SDS011;30172;48.832;8.732;2023-07-20T03:12:34;4.18;;;2.28;;
15944;SDS011;30172;48.832;8.732;2023-07-20T03:15:00;3.08;;;2.13;;
15944;SDS011;30172;48.832;8.732;2023-07-20T03:17:26;4.70;;;2.40;;
15944;SDS011;30172;48.832;8.732;2023-07-20T03:19:51;2.83;;;2.33;;
15944;SDS011;30172;48.832;8.732;2023-07-20T03:22:17;4.22;;;2.00;;
15944;SDS011;30172;48.832;8.732;2023-07-20T03:24:43;5.50;;;2.67;;
15944;SDS011;30172;48.832;8.732;2023-07-20T03:27:08;5.05;;;2.70;;
15944;SDS011;30172;48.832;8.732;2023-07-20T03:29:33;2.92;;;2.08;;
15944;SDS011;30172;48.832;8.732;2023-07-20T03:31:59;3.50;;;2.50;;
15944;SDS011;30172;48.832;8.732;2023-07-20T03:34:24;4.22;;;2.55;;
15944;SDS011;30172;48.832;8.732;2023-07-20T03:36:50;3.13;;;2.28;;
15944;SDS011;30172;48.832;8.732;2023-07-20T03:39:15;3.90;;;2.38;;
15944;SDS011;30172;48.832;8.732;2023-07-20T03:41:41;3.65;;;2.58;;
15944;SDS011;30172;48.832;8.732;2023-07-20T03:44:08;3.97;;;2.50;;
15944;SDS011;30172;48.832;8.732;2023-07-20T03:46:33;3.58;;;2.45;;
15944;SDS011;30172;48.832;8.732;2023-07-20T03:48:59;4.50;;;2.17;;
15944;SDS011;30172;48.832;8.732;2023-07-20T03:51:24;4.43;;;2.63;;
15944;SDS011;30172;48.832;8.732;2023-07-20T03:53:50;4.78;;;2.60;;
15944;SDS011;30172;48.832;8.732;2023-07-20T03:56:15;4.68;;;2.65;;
15944;SDS011;30172;48.832;8.732;2023-07-20T03:58:41;3.50;;;2.60;;
15944;SDS011;30172;48.832;8.732;2023-07-20T04:01:06;3.38;;;2.33;;
15944;SDS011;30172;48.832;8.732;2023-07-20T04:03:32;2.70;;;2.30;;
15944;SDS011;30172;48.832;8.732;2023-07-20T04:05:57;4.13;;;2.67;;
15944;SDS011;30172;48.832;8.732;2023-07-20T04:08:23;4.25;;;2.70;;
15944;SDS011;30172;48.832;8.732;2023-07-20T04:10:49;2.75;;;2.35;;
15944;SDS011;30172;48.832;8.732;2023-07-20T04:13:14;3.40;;;2.33;;
15944;SDS011;30172;48.832;8.732;2023-07-20T04:15:40;3.05;;;2.40;;
15944;SDS011;30172;48.832;8.732;2023-07-20T04:18:05;4.00;;;2.42;;
15944;SDS011;30172;48.832;8.732;2023-07-20T04:20:31;3.67;;;2.25;;
15944;SDS011;30172;48.832;8.732;2023-07-20T04:22:56;3.92;;;2.60;;
15944;SDS011;30172;48.832;8.732;2023-07-20T04:25:24;3.63;;;2.33;;
15944;SDS011;30172;48.832;8.732;2023-07-20T04:27:49;3.92;;;2.28;;
15944;SDS011;30172;48.832;8.732;2023-07-20T04:30:16;2.58;;;1.90;;
15944;SDS011;30172;48.832;8.732;2023-07-20T04:32:45;2.30;;;2.10;;
15944;SDS011;30172;48.832;8.732;2023-07-20T04:35:17;2.65;;;2.30;;
15944;SDS011;30172;48.832;8.732;2023-07-20T04:38:02;4.15;;;2.45;;
15944;SDS011;30172;48.832;8.732;2023-07-20T04:40:27;3.47;;;2.22;;
15944;SDS011;30172;48.832;8.732;2023-07-20T04:42:53;5.28;;;2.45;;
15944;SDS011;30172;48.832;8.732;2023-07-20T04:45:18;4.07;;;2.72;;
15944;SDS011;30172;48.832;8.732;2023-07-20T04:47:44;2.92;;;2.20;;
15944;SDS011;30172;48.832;8.732;2023-07-20T04:50:09;3.25;;;2.38;;
15944;SDS011;30172;48.832;8.732;2023-07-20T04:52:34;4.75;;;2.60;;
15944;SDS011;30172;48.832;8.732;2023-07-20T04:55:00;3.70;;;1.98;;
15944;SDS011;30172;48.832;8.732;2023-07-20T04:57:25;2.78;;;2.35;;
15944;SDS011;30172;48.832;8.732;2023-07-20T04:59:51;5.35;;;2.85;;
15944;SDS011;30172;48.832;8.732;2023-07-20T05:02:16;5.30;;;2.78;;
15944;SDS011;30172;48.832;8.732;2023-07-20T05:04:42;2.78;;;2.10;;
15944;SDS011;30172;48.832;8.732;2023-07-20T05:07:07;3.28;;;2.90;;
15944;SDS011;30172;48.832;8.732;2023-07-20T05:09:32;3.85;;;2.13;;
15944;SDS011;30172;48.832;8.732;2023-07-20T05:11:58;3.05;;;1.98;;
15944;SDS011;30172;48.832;8.732;2023-07-20T05:14:23;5.65;;;1.85;;
15944;SDS011;30172;48.832;8.732;2023-07-20T05:16:48;4.50;;;1.88;;
15944;SDS011;30172;48.832;8.732;2023-07-20T05:19:14;2.45;;;2.13;;
15944;SDS011;30172;48.832;8.732;2023-07-20T05:21:39;2.90;;;1.85;;
15944;SDS011;30172;48.832;8.732;2023-07-20T05:24:04;4.05;;;2.00;;
15944;SDS011;30172;48.832;8.732;2023-07-20T05:26:30;5.18;;;1.90;;
15944;SDS011;30172;48.832;8.732;2023-07-20T05:28:55;7.80;;;1.95;;
15944;SDS011;30172;48.832;8.732;2023-07-20T05:31:21;4.38;;;2.03;;
15944;SDS011;30172;48.832;8.732;2023-07-20T05:33:46;4.90;;;2.20;;
15944;SDS011;30172;48.832;8.732;2023-07-20T05:36:26;6.13;;;2.28;;
15944;SDS011;30172;48.832;8.732;2023-07-20T05:38:52;4.88;;;2.95;;
15944;SDS011;30172;48.832;8.732;2023-07-20T05:41:18;4.20;;;2.10;;
15944;SDS011;30172;48.832;8.732;2023-07-20T05:43:43;9.05;;;2.08;;
15944;SDS011;30172;48.832;8.732;2023-07-20T05:46:08;4.22;;;1.75;;
15944;SDS011;30172;48.832;8.732;2023-07-20T05:48:34;3.40;;;1.83;;
15944;SDS011;30172;48.832;8.732;2023-07-20T05:51:00;3.63;;;1.90;;
15944;SDS011;30172;48.832;8.732;2023-07-20T05:53:25;3.65;;;2.10;;
15944;SDS011;30172;48.832;8.732;2023-07-20T05:55:54;5.88;;;2.20;;
15944;SDS011;30172;48.832;8.732;2023-07-20T05:58:19;6.35;;;2.03;;
15944;SDS011;30172;48.832;8.732;2023-07-20T06:00:47;2.95;;;1.85;;
15944;SDS011;30172;48.832;8.732;2023-07-20T06:03:13;3.35;;;1.80;;
15944;SDS011;30172;48.832;8.732;2023-07-20T06:05:38;3.33;;;2.00;;
15944;SDS011;30172;48.832;8.732;2023-07-20T06:08:04;9.82;;;2.15;;
15944;SDS011;30172;48.832;8.732;2023-07-20T06:10:29;5.30;;;1.90;;
15944;SDS011;30172;48.832;8.732;2023-07-20T06:12:54;4.95;;;2.30;;
15944;SDS011;30172;48.832;8.732;2023-07-20T06:15:24;6.65;;;2.17;;
15944;SDS011;30172;48.832;8.732;2023-07-20T06:17:54;3.50;;;2.08;;
15944;SDS011;30172;48.832;8.732;2023-07-20T06:20:20;8.23;;;2.47;;
15944;SDS011;30172;48.832;8.732;2023-07-20T06:22:45;4.85;;;2.17;;
15944;SDS011;30172;48.832;8.732;2023-07-20T06:25:10;8.25;;;2.47;;
15944;SDS011;30172;48.832;8.732;2023-07-20T06:27:36;7.35;;;2.97;;
15944;SDS011;30172;48.832;8.732;2023-07-20T06:30:01;3.33;;;2.25;;
15944;SDS011;30172;48.832;8.732;2023-07-20T06:32:26;4.90;;;2.20;;
15944;SDS011;30172;48.832;8.732;2023-07-20T06:34:52;7.80;;;2.60;;
15944;SDS011;30172;48.832;8.732;2023-07-20T06:37:17;6.10;;;2.17;;
15944;SDS011;30172;48.832;8.732;2023-07-20T06:39:42;4.03;;;2.22;;
15944;SDS011;30172;48.832;8.732;2023-07-20T06:42:07;5.70;;;2.50;;
15944;SDS011;30172;48.832;8.732;2023-07-20T06:44:33;7.97;;;2.50;;
15944;SDS011;30172;48.832;8.732;2023-07-20T06:46:58;3.63;;;2.20;;
15944;SDS011;30172;48.832;8.732;2023-07-20T06:49:24;4.47;;;2.47;;
15944;SDS011;30172;48.832;8.732;2023-07-20T06:51:50;5.03;;;2.50;;
15944;SDS011;30172;48.832;8.732;2023-07-20T06:54:16;11.10;;;2.60;;
15944;SDS011;30172;48.832;8.732;2023-07-20T06:56:41;7.72;;;2.53;;
15944;SDS011;30172;48.832;8.732;2023-07-20T06:59:06;2.80;;;2.22;;
15944;SDS011;30172;48.832;8.732;2023-07-20T07:01:32;3.50;;;1.77;;
15944;SDS011;30172;48.832;8.732;2023-07-20T07:03:57;9.20;;;2.40;;
15944;SDS011;30172;48.832;8.732;2023-07-20T07:06:22;3.95;;;2.40;;
15944;SDS011;30172;48.832;8.732;2023-07-20T07:08:48;4.43;;;2.22;;
15944;SDS011;30172;48.832;8.732;2023-07-20T07:11:13;5.13;;;1.98;;
15944;SDS011;30172;48.832;8.732;2023-07-20T07:13:39;15.73;;;3.10;;
15944;SDS011;30172;48.832;8.732;2023-07-20T07:16:04;7.05;;;2.60;;
15944;SDS011;30172;48.832;8.732;2023-07-20T07:18:29;6.85;;;2.40;;
15944;SDS011;30172;48.832;8.732;2023-07-20T07:24:47;7.93;;;2.33;;
15944;SDS011;30172;48.832;8.732;2023-07-20T07:27:15;5.00;;;2.08;;
15944;SDS011;30172;48.832;8.732;2023-07-20T07:29:41;6.68;;;2.22;;
15944;SDS011;30172;48.832;8.732;2023-07-20T07:32:09;4.15;;;2.40;;
15944;SDS011;30172;48.832;8.732;2023-07-20T07:38:17;7.78;;;2.60;;
15944;SDS011;30172;48.832;8.732;2023-07-20T07:45:27;5.70;;;2.17;;
15944;SDS011;30172;48.832;8.732;2023-07-20T07:48:55;9.40;;;2.63;;
15944;SDS011;30172;48.832;8.732;2023-07-20T07:51:49;7.53;;;2.65;;
15944;SDS011;30172;48.832;8.732;2023-07-20T07:54:15;5.43;;;2.47;;
15944;SDS011;30172;48.832;8.732;2023-07-20T07:56:40;4.80;;;2.53;;
15944;SDS011;30172;48.832;8.732;2023-07-20T07:59:06;9.68;;;2.80;;
15944;SDS011;30172;48.832;8.732;2023-07-20T08:01:31;5.53;;;2.75;;
15944;SDS011;30172;48.832;8.732;2023-07-20T08:03:57;6.82;;;2.22;;
15944;SDS011;30172;48.832;8.732;2023-07-20T08:06:22;7.05;;;2.58;;
15944;SDS011;30172;48.832;8.732;2023-07-20T08:08:48;7.68;;;2.38;;
15944;SDS011;30172;48.832;8.732;2023-07-20T08:11:14;4.18;;;2.20;;
15944;SDS011;30172;48.832;8.732;2023-07-20T08:13:39;10.60;;;2.58;;
15944;SDS011;30172;48.832;8.732;2023-07-20T08:16:04;3.05;;;2.20;;
15944;SDS011;30172;48.832;8.732;2023-07-20T08:18:30;5.30;;;2.33;;
15944;SDS011;30172;48.832;8.732;2023-07-20T08:20:56;4.68;;;2.33;;
15944;SDS011;30172;48.832;8.732;2023-07-20T08:23:35;9.73;;;2.35;;
15944;SDS011;30172;48.832;8.732;2023-07-20T08:33:34;6.43;;;2.50;;
15944;SDS011;30172;48.832;8.732;2023-07-20T08:38:52;4.55;;;2.15;;
15944;SDS011;30172;48.832;8.732;2023-07-20T08:41:17;4.53;;;2.40;;
15944;SDS011;30172;48.832;8.732;2023-07-20T08:43:43;3.15;;;2.25;;
15944;SDS011;30172;48.832;8.732;2023-07-20T08:46:11;5.25;;;2.30;;
15944;SDS011;30172;48.832;8.732;2023-07-20T08:48:38;6.95;;;2.40;;
15944;SDS011;30172;48.832;8.732;2023-07-20T08:51:05;5.57;;;2.20;;
15944;SDS011;30172;48.832;8.732;2023-07-20T08:53:31;3.03;;;2.20;;
15944;SDS011;30172;48.832;8.732;2023-07-20T08:55:57;5.70;;;1.70;;
15944;SDS011;30172;48.832;8.732;2023-07-20T08:58:23;6.32;;;2.05;;
15944;SDS011;30172;48.832;8.732;2023-07-20T09:00:50;1.90;;;1.60;;
15944;SDS011;30172;48.832;8.732;2023-07-20T09:03:16;1.92;;;1.52;;
15944;SDS011;30172;48.832;8.732;2023-07-20T09:05:41;3.60;;;1.77;;
15944;SDS011;30172;48.832;8.732;2023-07-20T09:08:09;3.53;;;1.88;;
15944;SDS011;30172;48.832;8.732;2023-07-20T09:10:34;5.13;;;1.70;;
15944;SDS011;30172;48.832;8.732;2023-07-20T09:13:00;6.10;;;1.80;;
15944;SDS011;30172;48.832;8.732;2023-07-20T09:15:25;6.03;;;1.90;;
15944;SDS011;30172;48.832;8.732;2023-07-20T09:17:51;2.22;;;1.40;;
15944;SDS011;30172;48.832;8.732;2023-07-20T09:20:18;3.08;;;1.45;;
15944;SDS011;30172;48.832;8.732;2023-07-20T09:22:44;3.42;;;1.40;;
15944;SDS011;30172;48.832;8.732;2023-07-20T09:25:13;2.97;;;1.55;;
15944;SDS011;30172;48.832;8.732;2023-07-20T09:27:43;4.53;;;1.42;;
15944;SDS011;30172;48.832;8.732;2023-07-20T09:30:10;4.88;;;2.05;;
15944;SDS011;30172;48.832;8.732;2023-07-20T09:32:40;1.83;;;1.40;;
15944;SDS011;30172;48.832;8.732;2023-07-20T09:35:12;2.17;;;1.50;;
15944;SDS011;30172;48.832;8.732;2023-07-20T09:37:39;4.50;;;1.67;;
15944;SDS011;30172;48.832;8.732;2023-07-20T09:40:06;3.75;;;1.90;;
15944;SDS011;30172;48.832;8.732;2023-07-20T09:42:32;4.25;;;1.50;;
15944;SDS011;30172;48.832;8.732;2023-07-20T09:44:57;2.53;;;1.17;;
15944;SDS011;30172;48.832;8.732;2023-07-20T09:47:23;3.75;;;1.48;;
15944;SDS011;30172;48.832;8.732;2023-07-20T09:49:48;3.55;;;1.30;;
15944;SDS011;30172;48.832;8.732;2023-07-20T09:52:14;3.03;;;1.20;;
15944;SDS011;30172;48.832;8.732;2023-07-20T09:54:40;1.60;;;1.35;;
15944;SDS011;30172;48.832;8.732;2023-07-20T09:57:08;3.53;;;1.63;;
15944;SDS011;30172;48.832;8.732;2023-07-20T09:59:34;3.65;;;1.80;;
15944;SDS011;30172;48.832;8.732;2023-07-20T10:01:59;4.10;;;1.70;;
15944;SDS011;30172;48.832;8.732;2023-07-20T10:04:27;3.83;;;1.50;;
15944;SDS011;30172;48.832;8.732;2023-07-20T10:06:54;3.63;;;1.50;;
15944;SDS011;30172;48.832;8.732;2023-07-20T10:09:20;1.48;;;1.38;;
15944;SDS011;30172;48.832;8.732;2023-07-20T10:11:49;2.40;;;1.48;;
15944;SDS011;30172;48.832;8.732;2023-07-20T10:14:16;2.08;;;1.70;;
15944;SDS011;30172;48.832;8.732;2023-07-20T10:16:51;1.70;;;1.50;;
15944;SDS011;30172;48.832;8.732;2023-07-20T10:19:25;4.07;;;1.70;;
15944;SDS011;30172;48.832;8.732;2023-07-20T10:21:57;3.60;;;1.80;;
15944;SDS011;30172;48.832;8.732;2023-07-20T10:24:27;1.73;;;1.40;;
15944;SDS011;30172;48.832;8.732;2023-07-20T10:26:53;2.55;;;1.55;;
15944;SDS011;30172;48.832;8.732;2023-07-20T10:29:19;5.97;;;1.60;;
15944;SDS011;30172;48.832;8.732;2023-07-20T10:31:45;6.00;;;1.33;;
15944;SDS011;30172;48.832;8.732;2023-07-20T10:34:11;2.88;;;1.13;;
15944;SDS011;30172;48.832;8.732;2023-07-20T10:36:43;3.45;;;1.52;;
15944;SDS011;30172;48.832;8.732;2023-07-20T10:39:21;2.42;;;1.27;;
15944;SDS011;30172;48.832;8.732;2023-07-20T10:41:48;1.58;;;1.20;;
15944;SDS011;30172;48.832;8.732;2023-07-20T10:44:14;2.53;;;1.52;;
15944;SDS011;30172;48.832;8.732;2023-07-20T10:46:45;1.55;;;1.23;;
15944;SDS011;30172;48.832;8.732;2023-07-20T10:49:11;1.60;;;1.42;;
15944;SDS011;30172;48.832;8.732;2023-07-20T10:56:43;1.45;;;1.30;;
15944;SDS011;30172;48.832;8.732;2023-07-20T11:17:33;1.23;;;1.10;;
15944;SDS011;30172;48.832;8.732;2023-07-20T11:20:36;2.83;;;1.63;;
15944;SDS011;30172;48.832;8.732;2023-07-20T11:23:02;1.38;;;1.20;;
15944;SDS011;30172;48.832;8.732;2023-07-20T11:25:35;2.97;;;1.30;;
15944;SDS011;30172;48.832;8.732;2023-07-20T11:28:01;1.55;;;1.13;;
15944;SDS011;30172;48.832;8.732;2023-07-20T11:30:27;2.78;;;1.20;;
15944;SDS011;30172;48.832;8.732;2023-07-20T11:32:58;1.70;;;1.60;;
15944;SDS011;30172;48.832;8.732;2023-07-20T11:35:23;4.00;;;1.27;;
15944;SDS011;30172;48.832;8.732;2023-07-20T11:37:48;2.38;;;1.20;;
15944;SDS011;30172;48.832;8.732;2023-07-20T11:40:14;1.45;;;1.20;;
15944;SDS011;30172;48.832;8.732;2023-07-20T11:42:39;5.22;;;1.33;;
15944;SDS011;30172;48.832;8.732;2023-07-20T11:45:05;1.38;;;1.23;;
15944;SDS011;30172;48.832;8.732;2023-07-20T11:47:31;3.75;;;1.20;;
15944;SDS011;30172;48.832;8.732;2023-07-20T11:49:57;1.40;;;1.30;;
15944;SDS011;30172;48.832;8.732;2023-07-20T11:52:28;2.33;;;1.50;;
15944;SDS011;30172;48.832;8.732;2023-07-20T11:54:53;2.90;;;1.25;;
15944;SDS011;30172;48.832;8.732;2023-07-20T11:57:19;2.70;;;1.50;;
15944;SDS011;30172;48.832;8.732;2023-07-20T12:02:23;2.72;;;1.45;;
15944;SDS011;30172;48.832;8.732;2023-07-20T12:04:50;2.33;;;1.38;;
15944;SDS011;30172;48.832;8.732;2023-07-20T12:07:17;2.63;;;1.25;;
15944;SDS011;30172;48.832;8.732;2023-07-20T12:09:43;3.35;;;1.42;;
15944;SDS011;30172;48.832;8.732;2023-07-20T12:12:10;2.65;;;1.48;;
15944;SDS011;30172;48.832;8.732;2023-07-20T12:14:38;3.38;;;1.52;;
15944;SDS011;30172;48.832;8.732;2023-07-20T12:17:03;1.60;;;1.50;;
15944;SDS011;30172;48.832;8.732;2023-07-20T12:19:29;2.45;;;1.50;;
15944;SDS011;30172;48.832;8.732;2023-07-20T12:21:57;3.25;;;1.60;;
15944;SDS011;30172;48.832;8.732;2023-07-20T12:24:24;3.63;;;1.35;;
15944;SDS011;30172;48.832;8.732;2023-07-20T12:26:55;7.63;;;1.25;;
15944;SDS011;30172;48.832;8.732;2023-07-20T12:29:22;4.10;;;1.15;;
15944;SDS011;30172;48.832;8.732;2023-07-20T12:31:47;2.75;;;1.10;;
15944;SDS011;30172;48.832;8.732;2023-07-20T12:34:12;1.30;;;1.20;;
15944;SDS011;30172;48.832;8.732;2023-07-20T12:36:38;2.15;;;0.98;;
15944;SDS011;30172;48.832;8.732;2023-07-20T12:39:03;4.00;;;1.30;;
15944;SDS011;30172;48.832;8.732;2023-07-20T12:41:30;2.25;;;1.25;;
15944;SDS011;30172;48.832;8.732;2023-07-20T12:43:55;1.20;;;1.10;;
15944;SDS011;30172;48.832;8.732;2023-07-20T12:46:22;1.35;;;1.20;;
15944;SDS011;30172;48.832;8.732;2023-07-20T12:48:48;1.70;;;1.40;;
15944;SDS011;30172;48.832;8.732;2023-07-20T12:51:13;1.45;;;1.00;;
15944;SDS011;30172;48.832;8.732;2023-07-20T12:53:39;1.67;;;1.08;;
15944;SDS011;30172;48.832;8.732;2023-07-20T12:56:04;1.63;;;1.20;;
15944;SDS011;30172;48.832;8.732;2023-07-20T12:58:30;1.20;;;1.00;;
15944;SDS011;30172;48.832;8.732;2023-07-20T13:00:55;1.33;;;1.20;;
15944;SDS011;30172;48.832;8.732;2023-07-20T13:03:20;1.83;;;1.15;;
15944;SDS011;30172;48.832;8.732;2023-07-20T13:05:46;2.78;;;1.40;;
15944;SDS011;30172;48.832;8.732;2023-07-20T13:08:12;2.03;;;1.38;;
15944;SDS011;30172;48.832;8.732;2023-07-20T13:10:38;2.72;;;1.20;;
15944;SDS011;30172;48.832;8.732;2023-07-20T13:13:03;1.33;;;1.08;;
15944;SDS011;30172;48.832;8.732;2023-07-20T13:15:32;2.25;;;1.20;;
15944;SDS011;30172;48.832;8.732;2023-07-20T13:18:07;1.67;;;1.50;;
15944;SDS011;30172;48.832;8.732;2023-07-20T13:20:32;1.92;;;1.30;;
15944;SDS011;30172;48.832;8.732;2023-07-20T13:22:57;1.65;;;1.42;;
15944;SDS011;30172;48.832;8.732;2023-07-20T13:25:23;1.83;;;1.33;;
15944;SDS011;30172;48.832;8.732;2023-07-20T13:27:48;2.40;;;1.25;;
15944;SDS011;30172;48.832;8.732;2023-07-20T13:30:13;2.72;;;1.23;;
15944;SDS011;30172;48.832;8.732;2023-07-20T13:32:42;1.33;;;1.23;;
15944;SDS011;30172;48.832;8.732;2023-07-20T13:35:08;2.03;;;1.20;;
15944;SDS011;30172;48.832;8.732;2023-07-20T13:37:34;1.70;;;1.23;;
15944;SDS011;30172;48.832;8.732;2023-07-20T13:39:59;2.42;;;0.98;;
15944;SDS011;30172;48.832;8.732;2023-07-20T13:42:24;1.55;;;1.35;;
15944;SDS011;30172;48.832;8.732;2023-07-20T13:44:50;1.40;;;1.30;;
15944;SDS011;30172;48.832;8.732;2023-07-20T13:47:16;2.25;;;1.23;;
15944;SDS011;30172;48.832;8.732;2023-07-20T13:49:41;2.92;;;1.42;;
15944;SDS011;30172;48.832;8.732;2023-07-20T13:52:08;1.40;;;1.30;;
15944;SDS011;30172;48.832;8.732;2023-07-20T13:54:33;1.23;;;1.08;;
15944;SDS011;30172;48.832;8.732;2023-07-20T13:56:58;2.13;;;1.60;;
15944;SDS011;30172;48.832;8.732;2023-07-20T13:59:24;2.13;;;1.58;;
15944;SDS011;30172;48.832;8.732;2023-07-20T14:01:50;2.72;;;1.50;;
15944;SDS011;30172;48.832;8.732;2023-07-20T14:04:15;3.03;;;1.30;;
15944;SDS011;30172;48.832;8.732;2023-07-20T14:06:40;2.70;;;1.30;;
15944;SDS011;30172;48.832;8.732;2023-07-20T14:09:06;3.20;;;1.30;;
15944;SDS011;30172;48.832;8.732;2023-07-20T14:11:31;5.05;;;1.23;;
15944;SDS011;30172;48.832;8.732;2023-07-20T14:13:56;2.53;;;1.33;;
15944;SDS011;30172;48.832;8.732;2023-07-20T14:16:24;1.05;;;1.00;;
15944;SDS011;30172;48.832;8.732;2023-07-20T14:18:50;2.13;;;1.60;;
15944;SDS011;30172;48.832;8.732;2023-07-20T14:21:16;2.70;;;1.60;;
15944;SDS011;30172;48.832;8.732;2023-07-20T14:23:42;1.70;;;1.60;;
15944;SDS011;30172;48.832;8.732;2023-07-20T14:26:07;2.05;;;1.30;;
15944;SDS011;30172;48.832;8.732;2023-07-20T14:28:33;2.17;;;1.67;;
15944;SDS011;30172;48.832;8.732;2023-07-20T14:30:59;2.17;;;1.15;;
15944;SDS011;30172;48.832;8.732;2023-07-20T14:33:24;2.42;;;1.40;;
15944;SDS011;30172;48.832;8.732;2023-07-20T14:35:50;1.20;;;1.13;;
15944;SDS011;30172;48.832;8.732;2023-07-20T14:38:15;2.05;;;1.40;;
15944;SDS011;30172;48.832;8.732;2023-07-20T14:40:40;1.73;;;1.15;;
15944;SDS011;30172;48.832;8.732;2023-07-20T14:43:06;1.83;;;1.20;;
15944;SDS011;30172;48.832;8.732;2023-07-20T14:45:31;2.33;;;1.38;;
15944;SDS011;30172;48.832;8.732;2023-07-20T14:47:57;1.60;;;1.50;;
15944;SDS011;30172;48.832;8.732;2023-07-20T14:50:22;2.08;;;1.40;;
15944;SDS011;30172;48.832;8.732;2023-07-20T14:52:48;1.45;;;1.27;;
15944;SDS011;30172;48.832;8.732;2023-07-20T14:55:14;1.85;;;1.52;;
15944;SDS011;30172;48.832;8.732;2023-07-20T14:57:39;2.35;;;1.50;;
15944;SDS011;30172;48.832;8.732;2023-07-20T15:00:05;2.25;;;1.42;;
15944;SDS011;30172;48.832;8.732;2023-07-20T15:02:35;1.67;;;1.45;;
15944;SDS011;30172;48.832;8.732;2023-07-20T15:05:02;1.60;;;1.10;;
15944;SDS011;30172;48.832;8.732;2023-07-20T15:07:27;1.45;;;1.27;;
15944;SDS011;30172;48.832;8.732;2023-07-20T15:09:53;1.77;;;1.23;;
15944;SDS011;30172;48.832;8.732;2023-07-20T15:12:18;3.10;;;1.40;;
15944;SDS011;30172;48.832;8.732;2023-07-20T15:14:43;3.53;;;1.83;;
15944;SDS011;30172;48.832;8.732;2023-07-20T15:17:09;2.28;;;1.75;;
15944;SDS011;30172;48.832;8.732;2023-07-20T15:19:35;4.50;;;1.38;;
15944;SDS011;30172;48.832;8.732;2023-07-20T15:22:01;1.85;;;1.30;;
15944;SDS011;30172;48.832;8.732;2023-07-20T15:24:27;1.77;;;1.45;;
15944;SDS011;30172;48.832;8.732;2023-07-20T15:26:53;1.30;;;1.20;;
15944;SDS011;30172;48.832;8.732;2023-07-20T15:29:19;1.65;;;1.10;;
15944;SDS011;30172;48.832;8.732;2023-07-20T15:31:45;1.52;;;1.42;;
15944;SDS011;30172;48.832;8.732;2023-07-20T15:34:10;3.10;;;1.30;;
15944;SDS011;30172;48.832;8.732;2023-07-20T15:36:38;2.03;;;1.30;;
15944;SDS011;30172;48.832;8.732;2023-07-20T15:39:03;1.73;;;1.45;;
15944;SDS011;30172;48.832;8.732;2023-07-20T15:41:28;2.30;;;1.40;;